createdAt,value
2023-02-06T00:01:34.521Z,30.83
2023-02-06T00:04:02.593Z,31.47
2023-02-06T00:06:30.859Z,29.20
2023-02-06T00:08:58.850Z,32.13
2023-02-06T00:11:28.249Z,33.13
2023-02-06T00:13:56.386Z,33.23
2023-02-06T00:16:26.918Z,37.10
2023-02-06T00:18:56.207Z,34.63
2023-02-06T00:21:25.944Z,34.90
2023-02-06T00:23:56.320Z,32.60
2023-02-06T00:26:25.105Z,36.97
2023-02-06T00:28:54.476Z,35.03
2023-02-06T00:31:22.661Z,36.23
2023-02-06T00:33:50.787Z,35.43
2023-02-06T00:36:19.038Z,33.17
2023-02-06T00:38:47.104Z,38.43
2023-02-06T00:41:15.140Z,37.37
2023-02-06T00:43:43.550Z,41.47
2023-02-06T00:46:13.085Z,33.10
2023-02-06T00:48:42.100Z,31.57
2023-02-06T00:51:10.237Z,35.80
2023-02-06T00:53:39.476Z,34.90
2023-02-06T00:56:07.750Z,36.13
2023-02-06T00:58:35.866Z,31.70
2023-02-06T01:01:03.961Z,31.40
2023-02-06T01:03:33.361Z,31.20
2023-02-06T01:06:01.378Z,37.50
2023-02-06T01:08:29.690Z,36.30
2023-02-06T01:10:57.691Z,34.37
2023-02-06T01:13:25.747Z,36.53
2023-02-06T01:15:53.784Z,35.40
2023-02-06T01:18:21.759Z,38.90
2023-02-06T01:20:51.118Z,38.60
2023-02-06T01:23:19.166Z,32.83
2023-02-06T01:25:47.137Z,38.23
2023-02-06T01:28:15.192Z,35.93
2023-02-06T01:30:43.154Z,39.20
2023-02-06T01:33:11.118Z,37.20
2023-02-06T01:35:39.143Z,37.63
2023-02-06T01:38:08.478Z,35.23
2023-02-06T01:40:36.568Z,39.90
2023-02-06T01:43:04.628Z,38.50
2023-02-06T01:45:46.468Z,40.83
2023-02-06T01:48:20.153Z,39.70
2023-02-06T01:50:52.343Z,36.07
2023-02-06T01:53:22.609Z,40.43
2023-02-06T01:55:52.710Z,40.67
2023-02-06T01:58:27.007Z,43.03
2023-02-06T02:00:56.042Z,44.00
2023-02-06T02:03:24.160Z,41.83
2023-02-06T02:05:54.587Z,37.67
2023-02-06T02:08:28.854Z,45.73
2023-02-06T02:10:57.209Z,40.13
2023-02-06T02:13:25.271Z,48.40
2023-02-06T02:15:59.945Z,44.20
2023-02-06T02:18:41.916Z,46.77
2023-02-06T02:21:43.098Z,41.03
2023-02-06T02:24:18.471Z,46.43
2023-02-06T02:27:12.167Z,43.87
2023-02-06T02:30:17.741Z,44.27
2023-02-06T02:33:09.375Z,39.53
2023-02-06T02:35:51.043Z,45.07
2023-02-06T02:38:28.591Z,44.10
2023-02-06T02:41:04.242Z,49.67
2023-02-06T02:43:39.423Z,39.50
2023-02-06T02:46:15.485Z,42.70
2023-02-06T02:48:46.755Z,59.10
2023-02-06T02:51:17.418Z,42.47
2023-02-06T02:53:45.496Z,39.60
2023-02-06T02:56:17.697Z,35.07
2023-02-06T02:58:48.344Z,41.40
2023-02-06T03:01:22.579Z,45.73
2023-02-06T03:03:52.839Z,40.83
2023-02-06T03:06:35.362Z,44.93
2023-02-06T03:09:09.656Z,46.80
2023-02-06T03:11:42.330Z,42.07
2023-02-06T03:14:16.708Z,41.80
2023-02-06T03:16:48.728Z,41.53
2023-02-06T03:19:21.502Z,41.63
2023-02-06T03:21:51.290Z,40.70
2023-02-06T03:24:24.605Z,45.07
2023-02-06T03:26:58.392Z,45.00
2023-02-06T03:29:29.220Z,44.93
2023-02-06T03:32:00.377Z,44.23
2023-02-06T03:34:36.076Z,44.33
2023-02-06T03:37:05.372Z,43.47
2023-02-06T03:39:33.445Z,43.00
2023-02-06T03:42:03.218Z,43.37
2023-02-06T03:44:35.305Z,45.50
2023-02-06T03:47:05.010Z,42.70
2023-02-06T03:49:35.930Z,39.67
2023-02-06T03:52:08.566Z,40.50
2023-02-06T03:54:40.658Z,40.33
2023-02-06T03:57:13.137Z,46.10
2023-02-06T03:59:41.414Z,37.10
2023-02-06T04:02:10.035Z,36.23
2023-02-06T04:04:40.210Z,42.33
2023-02-06T04:07:14.588Z,36.77
2023-02-06T04:09:42.826Z,43.33
2023-02-06T04:12:11.077Z,40.67
2023-02-06T04:14:39.091Z,38.27
2023-02-06T04:17:08.168Z,39.50
2023-02-06T04:19:37.947Z,34.97
2023-02-06T04:22:06.404Z,37.70
2023-02-06T04:24:36.815Z,37.90
2023-02-06T04:27:04.878Z,37.10
2023-02-06T04:29:32.907Z,41.13
2023-02-06T04:32:02.268Z,38.97
2023-02-06T04:34:30.517Z,37.27
2023-02-06T04:36:59.091Z,43.00
2023-02-06T04:39:27.657Z,40.93
2023-02-06T04:41:57.279Z,39.67
2023-02-06T04:44:25.520Z,42.43
2023-02-06T04:46:53.488Z,40.07
2023-02-06T04:49:21.597Z,43.70
2023-02-06T04:51:49.599Z,36.97
2023-02-06T04:54:17.650Z,36.83
2023-02-06T04:56:46.202Z,38.00
2023-02-06T04:59:15.616Z,37.37
2023-02-06T05:01:43.709Z,35.43
2023-02-06T05:04:11.747Z,33.40
2023-02-06T05:06:39.775Z,36.27
2023-02-06T05:09:08.060Z,38.80
2023-02-06T05:11:36.009Z,40.27
2023-02-06T05:14:04.039Z,40.20
2023-02-06T05:16:33.464Z,36.60
2023-02-06T05:19:01.479Z,37.70
2023-02-06T05:21:29.524Z,33.20
2023-02-06T05:23:57.434Z,37.83
2023-02-06T05:26:25.400Z,35.23
2023-02-06T05:28:53.792Z,32.00
2023-02-06T05:31:21.859Z,35.47
2023-02-06T05:33:52.926Z,34.20
2023-02-06T05:36:21.873Z,34.27
2023-02-06T05:38:50.231Z,34.13
2023-02-06T05:41:18.882Z,36.40
2023-02-06T05:43:46.971Z,32.20
2023-02-06T05:46:15.184Z,34.83
2023-02-06T05:48:43.200Z,33.73
2023-02-06T05:51:12.822Z,36.90
2023-02-06T05:53:40.893Z,33.20
2023-02-06T05:56:08.954Z,34.80
2023-02-06T05:58:37.010Z,35.27
2023-02-06T06:01:05.244Z,30.40
2023-02-06T06:03:33.591Z,34.77
2023-02-06T06:06:01.661Z,36.03
2023-02-06T06:08:31.326Z,30.53
2023-02-06T06:11:01.765Z,32.30
2023-02-06T06:13:30.014Z,35.17
2023-02-06T06:15:58.054Z,32.27
2023-02-06T06:18:26.126Z,32.97
2023-02-06T06:20:54.842Z,33.20
2023-02-06T06:23:22.993Z,30.70
2023-02-06T06:25:52.313Z,30.83
2023-02-06T06:28:20.346Z,32.63
2023-02-06T06:30:48.319Z,33.03
2023-02-06T06:33:16.663Z,29.17
2023-02-06T06:35:44.790Z,31.40
2023-02-06T06:38:12.765Z,32.93
2023-02-06T06:40:41.908Z,32.53
2023-02-06T06:43:11.376Z,31.80
2023-02-06T06:45:39.670Z,29.00
2023-02-06T06:48:07.833Z,31.73
2023-02-06T06:50:35.919Z,26.10
2023-02-06T06:53:04.179Z,25.87
2023-02-06T06:55:32.609Z,30.33
2023-02-06T06:58:00.604Z,27.13
2023-02-06T07:00:29.977Z,25.37
2023-02-06T07:02:58.012Z,29.73
2023-02-06T07:05:26.263Z,28.23
2023-02-06T07:07:54.234Z,29.50
2023-02-06T07:10:22.176Z,26.80
2023-02-06T07:12:53.404Z,23.10
2023-02-06T07:15:21.713Z,25.03
2023-02-06T07:17:53.326Z,23.90
2023-02-06T07:20:21.534Z,23.17
2023-02-06T07:22:50.324Z,23.90
2023-02-06T07:25:20.274Z,20.93
2023-02-06T07:27:48.679Z,24.00
2023-02-06T07:30:16.916Z,25.53
2023-02-06T07:32:44.962Z,23.37
2023-02-06T07:35:15.269Z,23.33
2023-02-06T07:37:43.358Z,24.33
2023-02-06T07:40:12.707Z,22.10
2023-02-06T07:42:40.800Z,22.20
2023-02-06T07:45:09.684Z,18.40
2023-02-06T07:47:37.727Z,24.00
2023-02-06T07:50:06.186Z,22.37
2023-02-06T07:52:44.165Z,20.20
2023-02-06T07:55:12.180Z,21.20
2023-02-06T07:57:40.170Z,21.27
2023-02-06T08:00:09.631Z,17.53
2023-02-06T08:02:37.552Z,23.10
2023-02-06T08:05:05.698Z,21.10
2023-02-06T08:07:35.135Z,16.13
2023-02-06T08:10:03.176Z,16.93
2023-02-06T08:12:31.790Z,19.40
2023-02-06T08:14:59.730Z,16.93
2023-02-06T08:17:28.036Z,15.17
2023-02-06T08:19:56.002Z,17.30
2023-02-06T08:22:23.985Z,17.27
2023-02-06T08:24:53.271Z,15.73
2023-02-06T08:27:21.288Z,18.10
2023-02-06T08:29:49.275Z,14.40
2023-02-06T08:32:17.259Z,16.90
2023-02-06T08:34:45.299Z,17.83
2023-02-06T08:37:13.365Z,21.37
2023-02-06T08:39:41.432Z,16.80
2023-02-06T08:42:10.695Z,16.73
2023-02-06T08:44:38.627Z,18.73
2023-02-06T08:47:10.297Z,19.83
2023-02-06T08:49:39.113Z,16.07
2023-02-06T08:52:07.371Z,17.27
2023-02-06T08:54:37.737Z,18.83
2023-02-06T08:57:07.168Z,22.03
2023-02-06T08:59:38.324Z,16.57
2023-02-06T09:02:08.283Z,14.70
2023-02-06T09:04:37.773Z,13.90
2023-02-06T09:07:05.952Z,13.70
2023-02-06T09:09:33.960Z,11.27
2023-02-06T09:12:03.874Z,13.43
2023-02-06T09:14:32.909Z,12.77
2023-02-06T09:17:02.576Z,14.87
2023-02-06T09:19:30.605Z,14.53
2023-02-06T09:21:58.582Z,11.43
2023-02-06T09:24:27.278Z,11.50
2023-02-06T09:27:00.158Z,12.67
2023-02-06T09:29:31.650Z,15.10
2023-02-06T09:32:01.860Z,11.00
2023-02-06T09:34:31.287Z,13.30
2023-02-06T09:36:59.262Z,11.07
2023-02-06T09:39:27.482Z,11.80
2023-02-06T09:42:00.630Z,10.90
2023-02-06T09:44:32.775Z,9.90
2023-02-06T09:47:06.081Z,8.90
2023-02-06T09:49:40.721Z,10.90
2023-02-06T09:52:27.201Z,11.00
2023-02-06T09:55:04.047Z,9.53
2023-02-06T09:57:42.739Z,8.20
2023-02-06T10:00:25.358Z,8.60
2023-02-06T10:03:17.137Z,6.77
2023-02-06T10:05:52.658Z,9.97
2023-02-06T10:08:26.715Z,9.80
2023-02-06T10:10:57.453Z,9.30
2023-02-06T10:13:30.547Z,8.10
2023-02-06T10:16:02.430Z,7.63
2023-02-06T10:18:35.988Z,8.10
2023-02-06T10:21:11.241Z,10.80
2023-02-06T10:23:45.583Z,8.50
2023-02-06T10:26:18.350Z,7.27
2023-02-06T10:28:49.702Z,6.30
2023-02-06T10:31:35.030Z,7.13
2023-02-06T10:34:32.473Z,6.17
2023-02-06T10:37:20.785Z,5.33
2023-02-06T10:40:02.946Z,7.20
2023-02-06T10:42:43.660Z,7.40
2023-02-06T10:45:20.149Z,6.40
2023-02-06T10:48:00.172Z,6.30
2023-02-06T10:50:33.519Z,5.37
2023-02-06T10:53:07.334Z,6.30
2023-02-06T10:55:46.369Z,4.50
2023-02-06T10:58:19.818Z,5.60
2023-02-06T11:00:49.308Z,7.70
2023-02-06T11:03:20.974Z,5.63
2023-02-06T11:05:50.083Z,6.20
2023-02-06T11:08:30.400Z,6.80
2023-02-06T11:10:59.050Z,4.67
2023-02-06T11:13:29.152Z,3.23
2023-02-06T11:16:02.617Z,3.63
2023-02-06T11:18:35.513Z,4.90
2023-02-06T11:21:04.615Z,7.30
2023-02-06T11:23:35.108Z,6.23
2023-02-06T11:26:10.684Z,5.90
2023-02-06T11:28:42.373Z,4.80
2023-02-06T11:31:13.100Z,4.50
2023-02-06T11:33:48.359Z,5.27
2023-02-06T11:36:26.977Z,6.77
2023-02-06T11:38:58.604Z,4.53
2023-02-06T11:41:27.065Z,4.47
2023-02-06T11:44:02.385Z,4.13
2023-02-06T11:46:35.115Z,5.80
2023-02-06T11:49:06.607Z,7.53
2023-02-06T11:51:51.501Z,5.13
2023-02-06T11:54:25.106Z,11.97
2023-02-06T11:57:05.231Z,5.03
2023-02-06T11:59:35.415Z,5.53
2023-02-06T12:02:07.026Z,7.07
2023-02-06T12:04:38.120Z,9.83
2023-02-06T12:07:15.116Z,5.83
2023-02-06T12:09:44.837Z,5.33
2023-02-06T12:12:23.694Z,6.80
2023-02-06T12:14:56.373Z,5.83
2023-02-06T12:17:30.004Z,7.17
2023-02-06T12:20:04.764Z,5.60
2023-02-06T12:22:37.739Z,6.47
2023-02-06T12:25:22.834Z,7.13
2023-02-06T12:27:56.213Z,7.53
2023-02-06T12:30:32.908Z,9.43
2023-02-06T12:33:07.635Z,7.00
2023-02-06T12:35:41.179Z,8.60
2023-02-06T12:38:17.425Z,9.50
2023-02-06T12:40:52.695Z,7.33
2023-02-06T12:43:23.617Z,7.40
2023-02-06T12:45:57.542Z,7.40
2023-02-06T12:48:31.884Z,6.20
2023-02-06T12:51:08.736Z,10.27
2023-02-06T12:53:42.064Z,8.20
2023-02-06T12:56:24.808Z,11.73
2023-02-06T12:59:02.548Z,6.53
2023-02-06T13:01:43.996Z,7.57
2023-02-06T13:04:16.789Z,7.47
2023-02-06T13:06:49.932Z,7.63
2023-02-06T13:09:23.973Z,6.70
2023-02-06T13:11:53.849Z,7.43
2023-02-06T13:14:24.400Z,7.20
2023-02-06T13:16:56.365Z,6.80
2023-02-06T13:19:51.742Z,5.10
2023-02-06T13:22:36.362Z,4.90
2023-02-06T13:25:52.788Z,4.87
2023-02-06T13:28:44.358Z,5.73
2023-02-06T13:31:25.689Z,4.70
2023-02-06T13:33:57.296Z,6.80
2023-02-06T13:36:43.565Z,6.50
2023-02-06T13:39:23.410Z,7.33
2023-02-06T13:41:52.776Z,5.93
2023-02-06T13:44:26.248Z,5.20
2023-02-06T13:47:20.774Z,5.03
2023-02-06T13:50:25.630Z,7.77
2023-02-06T13:53:38.641Z,6.83
2023-02-06T13:56:32.861Z,6.80
2023-02-06T13:59:06.520Z,4.53
2023-02-06T14:01:36.992Z,7.00
2023-02-06T14:04:10.257Z,5.50
2023-02-06T14:06:55.136Z,5.33
2023-02-06T14:09:43.026Z,4.23
2023-02-06T14:12:35.346Z,4.63
2023-02-06T14:15:28.327Z,3.93
2023-02-06T14:18:19.132Z,4.27
2023-02-06T14:20:58.233Z,3.10
2023-02-06T14:23:36.265Z,6.40
2023-02-06T14:26:19.539Z,3.90
2023-02-06T14:28:56.516Z,3.97
2023-02-06T14:31:38.977Z,4.63
2023-02-06T14:34:23.550Z,5.33
2023-02-06T14:37:20.708Z,5.70
2023-02-06T14:39:51.361Z,4.37
2023-02-06T14:42:23.838Z,4.73
2023-02-06T14:44:57.112Z,5.10
2023-02-06T14:47:29.101Z,5.00
2023-02-06T14:50:00.533Z,4.97
2023-02-06T14:52:33.193Z,4.73
2023-02-06T14:55:01.374Z,4.20
2023-02-06T14:57:31.705Z,5.07
2023-02-06T15:00:01.913Z,4.40
2023-02-06T15:02:32.412Z,3.80
2023-02-06T15:05:03.051Z,4.50
2023-02-06T15:07:33.239Z,3.90
2023-02-06T15:10:06.781Z,5.30
2023-02-06T15:12:35.866Z,4.90
2023-02-06T15:15:16.708Z,5.60
2023-02-06T15:17:44.945Z,3.90
2023-02-06T15:20:26.034Z,3.87
2023-02-06T15:22:58.162Z,4.30
2023-02-06T15:25:41.333Z,3.80
2023-02-06T15:28:18.728Z,4.27
2023-02-06T15:30:47.562Z,5.23
2023-02-06T15:33:23.022Z,3.80
2023-02-06T15:35:55.341Z,3.87
2023-02-06T15:38:25.880Z,3.60
2023-02-06T15:40:56.272Z,4.33
2023-02-06T15:43:26.923Z,6.07
2023-02-06T15:45:57.101Z,6.60
2023-02-06T15:48:28.701Z,5.50
2023-02-06T15:51:00.547Z,4.97
2023-02-06T15:53:34.689Z,6.10
2023-02-06T15:56:05.024Z,5.07
2023-02-06T15:58:34.617Z,5.50
2023-02-06T16:01:05.816Z,3.87
2023-02-06T16:03:33.921Z,4.70
2023-02-06T16:06:03.371Z,6.30
2023-02-06T16:08:34.622Z,6.53
2023-02-06T16:11:26.457Z,8.17
2023-02-06T16:13:54.889Z,8.40
2023-02-06T16:16:25.229Z,5.50
2023-02-06T16:18:58.516Z,5.83
2023-02-06T16:21:30.209Z,5.30
2023-02-06T16:24:15.148Z,6.07
2023-02-06T16:26:47.055Z,5.70
2023-02-06T16:29:23.956Z,7.83
2023-02-06T16:31:59.008Z,4.07
2023-02-06T16:34:35.730Z,5.83
2023-02-06T16:37:10.845Z,7.50
2023-02-06T16:39:40.185Z,8.40
2023-02-06T16:42:09.299Z,7.40
2023-02-06T16:44:44.571Z,6.70
2023-02-06T16:47:15.892Z,5.60
2023-02-06T16:49:44.413Z,4.03
2023-02-06T16:52:19.022Z,3.60
2023-02-06T16:54:47.568Z,4.83
2023-02-06T16:57:22.241Z,3.63
2023-02-06T16:59:50.424Z,4.47
2023-02-06T17:02:18.885Z,3.73
2023-02-06T17:04:47.277Z,5.07
2023-02-06T17:07:19.235Z,5.73
2023-02-06T17:09:48.817Z,4.63
2023-02-06T17:12:19.108Z,5.00
2023-02-06T17:14:47.474Z,6.20
2023-02-06T17:17:18.898Z,4.63
2023-02-06T17:19:48.066Z,5.60
2023-02-06T17:22:18.080Z,5.97
2023-02-06T17:24:46.867Z,4.90
2023-02-06T17:27:17.125Z,3.77
2023-02-06T17:29:47.436Z,3.50
2023-02-06T17:32:21.716Z,11.27
2023-02-06T17:34:50.815Z,4.30
2023-02-06T17:37:21.621Z,5.93
2023-02-06T17:39:50.807Z,4.20
2023-02-06T17:42:21.976Z,5.63
2023-02-06T17:44:50.774Z,2.57
2023-02-06T17:47:19.064Z,3.07
2023-02-06T17:49:47.823Z,3.80
2023-02-06T17:52:16.532Z,3.67
2023-02-06T17:54:48.582Z,3.50
2023-02-06T17:57:16.774Z,3.17
2023-02-06T17:59:46.919Z,3.13
2023-02-06T18:02:15.480Z,3.57
2023-02-06T18:04:43.690Z,6.23
2023-02-06T18:07:11.945Z,4.07
2023-02-06T18:09:42.031Z,4.70
2023-02-06T18:12:12.192Z,5.50
2023-02-06T18:14:40.618Z,3.30
2023-02-06T18:17:09.259Z,3.33
2023-02-06T18:19:42.109Z,3.60
2023-02-06T18:22:13.441Z,3.33
2023-02-06T18:24:42.082Z,3.30
2023-02-06T18:27:12.154Z,4.83
2023-02-06T18:29:50.444Z,4.60
2023-02-06T18:32:20.117Z,4.20
2023-02-06T18:34:48.447Z,4.50
2023-02-06T18:37:20.792Z,7.40
2023-02-06T18:39:49.152Z,5.40
2023-02-06T18:42:35.950Z,3.10
2023-02-06T18:45:04.401Z,6.57
2023-02-06T18:47:32.634Z,5.17
2023-02-06T18:50:00.703Z,4.77
2023-02-06T18:52:29.131Z,4.20
2023-02-06T18:54:57.233Z,4.93
2023-02-06T18:57:26.620Z,4.97
2023-02-06T18:59:54.651Z,4.80
2023-02-06T19:02:23.362Z,3.97
2023-02-06T19:04:52.284Z,5.40
2023-02-06T19:07:20.400Z,4.20
2023-02-06T19:09:48.710Z,5.30
2023-02-06T19:12:16.875Z,4.97
2023-02-06T19:14:46.332Z,5.50
2023-02-06T19:17:14.396Z,6.00
2023-02-06T19:19:42.462Z,7.30
2023-02-06T19:22:10.528Z,4.90
2023-02-06T19:24:38.588Z,4.93
2023-02-06T19:27:06.599Z,6.17
2023-02-06T19:29:36.566Z,5.50
2023-02-06T19:32:08.273Z,7.33
2023-02-06T19:34:38.557Z,6.73
2023-02-06T19:37:07.564Z,6.80
2023-02-06T19:39:37.023Z,7.53
2023-02-06T19:42:06.787Z,6.07
2023-02-06T19:44:35.272Z,8.50
2023-02-06T19:47:03.757Z,6.77
2023-02-06T19:49:33.144Z,7.30
2023-02-06T19:52:01.884Z,5.67
2023-02-06T19:54:29.901Z,7.93
2023-02-06T19:56:58.023Z,9.00
2023-02-06T19:59:29.029Z,7.03
2023-02-06T20:01:58.799Z,6.57
2023-02-06T20:04:28.931Z,6.03
2023-02-06T20:06:58.452Z,10.77
2023-02-06T20:09:28.279Z,6.53
2023-02-06T20:11:57.216Z,5.50
2023-02-06T20:14:26.945Z,6.40
2023-02-06T20:16:55.112Z,6.53
2023-02-06T20:19:27.999Z,6.27
2023-02-06T20:21:59.201Z,5.13
2023-02-06T20:24:30.209Z,7.80
2023-02-06T20:26:59.952Z,6.70
2023-02-06T20:29:32.618Z,10.10
2023-02-06T20:32:01.520Z,8.30
2023-02-06T20:34:29.874Z,10.33
2023-02-06T20:36:59.613Z,11.10
2023-02-06T20:39:28.749Z,8.00
2023-02-06T20:41:56.986Z,8.87
2023-02-06T20:44:25.060Z,6.57
2023-02-06T20:46:53.083Z,8.07
2023-02-06T20:49:23.941Z,7.30
2023-02-06T20:51:52.706Z,7.40
2023-02-06T20:54:22.917Z,8.70
2023-02-06T20:56:51.550Z,9.30
2023-02-06T20:59:21.140Z,7.97
2023-02-06T21:01:49.491Z,7.40
2023-02-06T21:04:18.621Z,11.13
2023-02-06T21:06:47.928Z,7.67
2023-02-06T21:09:16.707Z,9.53
2023-02-06T21:11:47.582Z,7.17
2023-02-06T21:14:16.287Z,8.63
2023-02-06T21:16:44.694Z,9.63
2023-02-06T21:19:14.585Z,7.43
2023-02-06T21:21:45.606Z,9.20
2023-02-06T21:24:14.777Z,8.93
2023-02-06T21:26:45.134Z,8.30
2023-02-06T21:29:16.100Z,8.30
2023-02-06T21:31:46.038Z,6.60
2023-02-06T21:34:16.937Z,7.63
2023-02-06T21:36:45.711Z,8.20
2023-02-06T21:39:16.953Z,8.00
2023-02-06T21:41:45.395Z,8.40
2023-02-06T21:44:14.726Z,7.90
2023-02-06T21:46:42.749Z,8.07
2023-02-06T21:49:11.634Z,8.63
2023-02-06T21:51:40.205Z,11.20
2023-02-06T21:54:08.506Z,8.40
2023-02-06T21:56:38.133Z,8.07
2023-02-06T21:59:07.264Z,8.50
2023-02-06T22:01:40.609Z,8.17
2023-02-06T22:04:09.683Z,7.67
2023-02-06T22:06:38.050Z,10.03
2023-02-06T22:09:08.418Z,8.40
2023-02-06T22:11:38.320Z,8.13
2023-02-06T22:14:07.939Z,9.33
2023-02-06T22:16:47.070Z,7.30
2023-02-06T22:19:15.685Z,7.23
2023-02-06T22:21:43.777Z,8.93
2023-02-06T22:24:15.840Z,7.50
2023-02-06T22:26:44.731Z,8.17
2023-02-06T22:29:15.588Z,6.63
2023-02-06T22:31:46.109Z,6.80
2023-02-06T22:34:17.361Z,7.70
2023-02-06T22:36:45.707Z,8.27
2023-02-06T22:39:15.151Z,7.33
2023-02-06T22:41:45.158Z,8.67
2023-02-06T22:44:16.286Z,9.20
2023-02-06T22:46:48.345Z,7.53
2023-02-06T22:49:16.431Z,9.80
2023-02-06T22:51:44.663Z,8.73
2023-02-06T22:54:13.576Z,9.80
2023-02-06T22:56:42.571Z,8.20
2023-02-06T22:59:12.499Z,8.70
2023-02-06T23:01:42.020Z,7.10
2023-02-06T23:04:15.181Z,7.63
2023-02-06T23:06:44.353Z,10.90
2023-02-06T23:09:14.809Z,7.10
2023-02-06T23:11:42.942Z,8.93
2023-02-06T23:14:13.521Z,8.17
2023-02-06T23:16:42.273Z,8.43
2023-02-06T23:19:13.026Z,8.67
2023-02-06T23:21:43.225Z,8.10
2023-02-06T23:24:11.604Z,9.23
2023-02-06T23:26:41.590Z,10.80
2023-02-06T23:29:10.905Z,12.20
2023-02-06T23:31:38.921Z,9.93
2023-02-06T23:34:06.932Z,7.83
2023-02-06T23:36:36.300Z,8.63
2023-02-06T23:39:05.947Z,9.57
2023-02-06T23:41:34.541Z,9.10
2023-02-06T23:44:07.742Z,10.23
2023-02-06T23:46:37.866Z,10.53
2023-02-06T23:49:06.676Z,9.30
2023-02-06T23:51:36.684Z,11.03
2023-02-06T23:54:05.216Z,10.40
2023-02-06T23:56:34.208Z,9.27
2023-02-06T23:59:04.022Z,10.23
